Time;durP1;ratioP1;P1;durP2;ratioP2;P2;SDS_P1;SDS_P2;PMS_P1;PMS_P2;Temp;Humidity;BMP_temperature;BMP_pressure;BME280_temperature;BME280_humidity;BME280_pressure;Samples;Min_cycle;Max_cycle;Signal;HPM_P1;HPM_P2
2022/05/21 00:02:11;;;;;;;29.58;20.00;;;;;;;;;;5029698;28;98607;-76
2022/05/21 00:04:41;;;;;;;29.92;19.73;;;;;;;;;;5017376;28;99987;-76
2022/05/21 00:07:10;;;;;;;25.45;17.92;;;;;;;;;;5017096;28;100598;-76
2022/05/21 00:09:36;;;;;;;25.92;20.55;;;;;;;;;;5025745;28;99579;-76
2022/05/21 00:12:03;;;;;;;27.90;18.45;;;;;;;;;;5010593;28;100276;-76
2022/05/21 00:14:30;;;;;;;22.65;18.35;;;;;;;;;;5012934;28;100422;-76
2022/05/21 00:16:56;;;;;;;27.40;18.02;;;;;;;;;;5009499;28;100058;-76
2022/05/21 00:19:23;;;;;;;26.42;19.02;;;;;;;;;;5031599;27;99385;-75
2022/05/21 00:21:49;;;;;;;19.35;17.05;;;;;;;;;;5029933;27;97851;-76
2022/05/21 00:24:15;;;;;;;34.97;18.38;;;;;;;;;;5012068;28;99328;-76
2022/05/21 00:26:42;;;;;;;32.47;18.90;;;;;;;;;;5013297;28;100804;-76
2022/05/21 00:29:08;;;;;;;25.83;17.00;;;;;;;;;;5028900;28;99844;-76
2022/05/21 00:31:36;;;;;;;23.52;17.40;;;;;;;;;;5029549;28;100680;-76
2022/05/21 00:34:02;;;;;;;22.58;17.27;;;;;;;;;;5029858;28;100195;-76
2022/05/21 00:36:29;;;;;;;22.27;16.08;;;;;;;;;;5032057;28;99031;-76
2022/05/21 00:38:56;;;;;;;20.55;16.90;;;;;;;;;;5029103;28;99475;-76
2022/05/21 00:41:22;;;;;;;25.65;17.80;;;;;;;;;;5029516;28;98662;-76
2022/05/21 00:43:56;;;;;;;21.40;16.33;;;;;;;;;;5028229;28;100046;-76
2022/05/21 00:46:34;;;;;;;18.70;15.93;;;;;;;;;;5029739;28;99798;-76
2022/05/21 00:49:18;;;;;;;22.63;15.82;;;;;;;;;;5009739;28;98593;-76
2022/05/21 00:51:47;;;;;;;26.27;16.80;;;;;;;;;;5008566;28;100369;-76
2022/05/21 00:54:15;;;;;;;22.40;17.08;;;;;;;;;;5008789;28;101040;-76
2022/05/21 00:56:43;;;;;;;20.58;15.38;;;;;;;;;;5007538;28;99848;-76
2022/05/21 01:01:56;;;;;;;21.85;15.25;;;;;;;;;;5011482;28;98576;-76
2022/05/21 01:04:24;;;;;;;29.10;15.93;;;;;;;;;;5008252;28;99114;-76
2022/05/21 01:06:51;;;;;;;18.45;13.88;;;;;;;;;;5016062;28;100292;-76
2022/05/21 01:09:17;;;;;;;25.00;13.57;;;;;;;;;;5017017;28;98631;-76
2022/05/21 01:11:43;;;;;;;22.45;14.82;;;;;;;;;;5008729;28;100245;-76
2022/05/21 01:14:11;;;;;;;21.17;14.68;;;;;;;;;;5009001;28;99470;-75
2022/05/21 01:16:38;;;;;;;25.40;14.35;;;;;;;;;;5008513;28;98521;-75
2022/05/21 01:19:05;;;;;;;22.70;13.65;;;;;;;;;;5024158;27;99941;-75
2022/05/21 01:21:31;;;;;;;23.40;14.02;;;;;;;;;;5031754;28;100279;-75
2022/05/21 01:23:58;;;;;;;27.10;15.18;;;;;;;;;;5029024;28;99888;-75
2022/05/21 01:26:25;;;;;;;21.35;13.10;;;;;;;;;;5027605;28;99823;-75
2022/05/21 01:28:51;;;;;;;21.80;13.15;;;;;;;;;;5028586;28;98525;-75
2022/05/21 01:31:18;;;;;;;20.20;13.30;;;;;;;;;;5028844;28;100001;-75
2022/05/21 01:33:45;;;;;;;20.33;13.38;;;;;;;;;;5027622;28;100264;-75
2022/05/21 01:36:13;;;;;;;27.65;12.70;;;;;;;;;;5015679;28;97849;-75
2022/05/21 01:38:40;;;;;;;17.13;12.20;;;;;;;;;;5028680;27;99323;-75
2022/05/21 01:41:09;;;;;;;21.42;13.15;;;;;;;;;;5031450;28;100731;-75
2022/05/21 01:46:22;;;;;;;19.85;12.15;;;;;;;;;;5027510;28;99828;-75
2022/05/21 01:48:48;;;;;;;26.35;13.43;;;;;;;;;;5028353;28;98587;-75
2022/05/21 01:51:15;;;;;;;23.33;13.20;;;;;;;;;;5026221;28;99884;-75
2022/05/21 01:53:42;;;;;;;28.63;13.57;;;;;;;;;;5007340;28;100774;-75
2022/05/21 01:56:09;;;;;;;24.48;13.80;;;;;;;;;;5008893;28;98541;-75
2022/05/21 01:58:36;;;;;;;26.65;14.13;;;;;;;;;;5009069;28;100066;-75
2022/05/21 02:01:03;;;;;;;23.73;12.82;;;;;;;;;;5027962;28;99770;-75
2022/05/21 02:03:29;;;;;;;24.67;13.10;;;;;;;;;;5029718;28;98527;-75
2022/05/21 02:05:55;;;;;;;31.95;14.50;;;;;;;;;;5028209;28;100102;-75
2022/05/21 02:08:22;;;;;;;23.42;12.23;;;;;;;;;;5025418;28;99408;-75
2022/05/21 02:10:48;;;;;;;30.08;14.30;;;;;;;;;;5012232;28;100749;-75
2022/05/21 02:13:19;;;;;;;26.38;14.63;;;;;;;;;;5011284;28;99669;-75
2022/05/21 02:15:46;;;;;;;34.25;13.68;;;;;;;;;;5010869;28;98924;-75
2022/05/21 02:18:12;;;;;;;27.10;13.88;;;;;;;;;;5014523;27;99853;-75
2022/05/21 02:20:39;;;;;;;27.70;14.80;;;;;;;;;;5050545;27;100331;-75
2022/05/21 02:23:07;;;;;;;26.80;13.60;;;;;;;;;;5011332;28;98529;-75
2022/05/21 02:25:33;;;;;;;22.67;12.80;;;;;;;;;;5017743;28;100077;-74
2022/05/21 02:28:00;;;;;;;25.02;13.45;;;;;;;;;;5031347;28;98665;-75
2022/05/21 02:30:26;;;;;;;31.25;12.98;;;;;;;;;;5030292;27;100035;-75
2022/05/21 02:32:53;;;;;;;30.55;14.15;;;;;;;;;;5031314;28;100819;-75
2022/05/21 02:35:20;;;;;;;24.70;12.95;;;;;;;;;;5030896;28;98968;-75
2022/05/21 02:40:31;;;;;;;24.48;12.13;;;;;;;;;;5031120;28;100185;-75
2022/05/21 02:42:57;;;;;;;29.25;11.85;;;;;;;;;;5030104;28;98555;-75
2022/05/21 02:45:26;;;;;;;33.42;11.90;;;;;;;;;;5031637;28;100010;-75
2022/05/21 02:47:53;;;;;;;27.50;12.60;;;;;;;;;;5034900;28;100172;-75
2022/05/21 02:50:21;;;;;;;23.77;10.52;;;;;;;;;;5011754;28;100055;-75
2022/05/21 02:52:48;;;;;;;28.13;10.23;;;;;;;;;;5011208;28;100172;-75
2022/05/21 02:55:15;;;;;;;26.02;11.05;;;;;;;;;;5011194;28;98538;-75
2022/05/21 02:57:42;;;;;;;31.23;10.38;;;;;;;;;;5009479;28;99852;-75
2022/05/21 03:00:13;;;;;;;23.75;9.85;;;;;;;;;;5011491;28;100543;-75
2022/05/21 03:02:39;;;;;;;17.77;9.13;;;;;;;;;;5011863;28;98531;-75
2022/05/21 03:05:07;;;;;;;26.98;8.27;;;;;;;;;;5011020;28;99269;-75
2022/05/21 03:07:37;;;;;;;28.67;8.20;;;;;;;;;;5011374;28;100631;-75
2022/05/21 03:10:22;;;;;;;22.75;8.32;;;;;;;;;;5015040;28;98602;-75
2022/05/21 03:12:58;;;;;;;27.20;8.30;;;;;;;;;;5010922;28;100354;-75
2022/05/21 03:15:30;;;;;;;28.27;7.05;;;;;;;;;;5012090;28;97819;-75
2022/05/21 03:17:56;;;;;;;32.92;7.47;;;;;;;;;;5011950;28;99401;-75
2022/05/21 03:20:22;;;;;;;21.67;6.32;;;;;;;;;;5030595;27;100268;-75
2022/05/21 03:22:49;;;;;;;23.15;6.38;;;;;;;;;;5030802;28;99329;-75
2022/05/21 03:25:15;;;;;;;38.33;6.55;;;;;;;;;;5031131;27;100827;-75
2022/05/21 03:27:42;;;;;;;20.77;5.88;;;;;;;;;;5030307;28;99583;-75
2022/05/21 03:30:11;;;;;;;22.52;5.68;;;;;;;;;;5028669;27;98608;-75
2022/05/21 03:32:37;;;;;;;24.75;5.50;;;;;;;;;;5021184;28;99340;-75
2022/05/21 03:35:04;;;;;;;26.88;5.80;;;;;;;;;;5015852;28;98534;-75
2022/05/21 03:37:30;;;;;;;18.58;5.50;;;;;;;;;;5011064;28;100528;-75
2022/05/21 03:39:57;;;;;;;23.58;5.95;;;;;;;;;;5010280;28;98874;-75
2022/05/21 03:42:24;;;;;;;20.58;4.93;;;;;;;;;;5011223;28;98679;-75
2022/05/21 03:44:50;;;;;;;23.80;4.78;;;;;;;;;;5018303;28;99353;-75
2022/05/21 03:47:16;;;;;;;30.77;4.88;;;;;;;;;;5012219;28;101295;-75
2022/05/21 03:49:43;;;;;;;24.13;5.28;;;;;;;;;;5011162;28;99015;-75
2022/05/21 03:52:09;;;;;;;19.45;4.78;;;;;;;;;;5029918;28;99826;-75
2022/05/21 03:54:36;;;;;;;25.25;4.75;;;;;;;;;;5030284;28;98512;-75
2022/05/21 03:57:02;;;;;;;29.30;4.85;;;;;;;;;;5031253;28;99998;-75
2022/05/21 03:59:28;;;;;;;20.40;4.35;;;;;;;;;;5025206;28;100180;-75
2022/05/21 04:01:55;;;;;;;33.58;5.00;;;;;;;;;;5010481;28;98773;-75
2022/05/21 04:04:21;;;;;;;17.65;4.70;;;;;;;;;;5011066;28;100825;-75
2022/05/21 04:06:47;;;;;;;26.23;5.22;;;;;;;;;;5010016;28;100759;-75
2022/05/21 04:09:14;;;;;;;30.02;5.55;;;;;;;;;;5011506;28;98605;-75
2022/05/21 04:11:41;;;;;;;32.97;5.60;;;;;;;;;;5015999;28;99764;-75
2022/05/21 04:14:07;;;;;;;27.30;5.65;;;;;;;;;;5033048;28;100692;-75
2022/05/21 04:16:39;;;;;;;33.53;6.40;;;;;;;;;;5030533;28;99344;-75
2022/05/21 04:19:05;;;;;;;21.65;4.63;;;;;;;;;;5039063;27;100413;-75
2022/05/21 04:21:32;;;;;;;18.05;4.22;;;;;;;;;;5049859;27;98606;-75
2022/05/21 04:23:58;;;;;;;22.63;5.15;;;;;;;;;;5051207;27;100071;-75
2022/05/21 04:26:25;;;;;;;30.15;5.22;;;;;;;;;;5012437;27;99362;-75
2022/05/21 04:28:51;;;;;;;17.77;5.53;;;;;;;;;;5010611;28;98860;-75
2022/05/21 04:31:17;;;;;;;19.42;4.38;;;;;;;;;;5023794;27;98626;-75
2022/05/21 04:33:44;;;;;;;26.67;4.13;;;;;;;;;;5029983;28;100367;-75
2022/05/21 04:36:19;;;;;;;25.95;4.68;;;;;;;;;;5032890;28;99726;-75
2022/05/21 04:38:47;;;;;;;22.23;4.85;;;;;;;;;;5030146;28;100282;-75
2022/05/21 04:41:13;;;;;;;23.40;4.78;;;;;;;;;;5030043;28;98681;-75
2022/05/21 04:43:40;;;;;;;20.38;5.05;;;;;;;;;;5009050;28;99351;-75
2022/05/21 04:46:07;;;;;;;24.90;4.45;;;;;;;;;;5009191;28;99683;-75
2022/05/21 04:48:33;;;;;;;31.08;4.97;;;;;;;;;;5010044;28;98508;-75
2022/05/21 04:51:06;;;;;;;28.90;4.55;;;;;;;;;;5009877;28;100166;-75
2022/05/21 04:53:32;;;;;;;22.38;4.80;;;;;;;;;;5009794;28;99539;-75
2022/05/21 04:55:59;;;;;;;30.00;4.63;;;;;;;;;;5009063;28;98786;-75
2022/05/21 04:58:25;;;;;;;22.27;5.13;;;;;;;;;;5013390;28;100079;-75
2022/05/21 05:00:51;;;;;;;16.17;4.45;;;;;;;;;;5009581;28;99769;-75
2022/05/21 05:03:18;;;;;;;21.98;4.00;;;;;;;;;;5009481;28;100735;-75
2022/05/21 05:05:45;;;;;;;18.50;3.80;;;;;;;;;;5009344;28;100483;-75
2022/05/21 05:08:12;;;;;;;12.43;4.07;;;;;;;;;;5009711;28;99679;-75
2022/05/21 05:10:39;;;;;;;17.73;5.15;;;;;;;;;;5008607;28;99297;-75
2022/05/21 05:13:07;;;;;;;20.08;4.32;;;;;;;;;;5026507;28;99381;-75
2022/05/21 05:15:33;;;;;;;23.50;3.53;;;;;;;;;;5013196;28;98536;-75
2022/05/21 05:18:01;;;;;;;13.75;3.75;;;;;;;;;;5009406;28;99247;-75
2022/05/21 05:20:29;;;;;;;23.17;4.13;;;;;;;;;;5012528;28;99293;-75
2022/05/21 05:22:57;;;;;;;24.45;4.05;;;;;;;;;;5018312;28;99818;-75
2022/05/21 05:25:24;;;;;;;16.90;4.28;;;;;;;;;;5010168;28;100119;-75
2022/05/21 05:27:50;;;;;;;23.88;5.05;;;;;;;;;;5009839;28;98535;-75
2022/05/21 05:30:18;;;;;;;17.05;3.97;;;;;;;;;;5015518;28;100281;-75
2022/05/21 05:32:44;;;;;;;16.48;3.75;;;;;;;;;;5010100;28;100027;-75
2022/05/21 05:35:11;;;;;;;22.08;5.28;;;;;;;;;;5012892;28;98549;-75
2022/05/21 05:37:44;;;;;;;26.00;4.15;;;;;;;;;;5018245;28;99963;-75
2022/05/21 05:40:14;;;;;;;20.02;4.35;;;;;;;;;;5008126;28;100120;-75
2022/05/21 05:42:41;;;;;;;18.30;3.97;;;;;;;;;;5012068;28;98765;-75
2022/05/21 05:45:10;;;;;;;19.20;3.72;;;;;;;;;;5008483;28;99502;-75
2022/05/21 05:47:36;;;;;;;25.67;4.47;;;;;;;;;;5009087;28;98596;-75
2022/05/21 05:50:03;;;;;;;18.73;4.22;;;;;;;;;;5007242;28;99244;-75
2022/05/21 05:52:29;;;;;;;15.38;4.25;;;;;;;;;;5007419;28;100082;-75
2022/05/21 05:54:56;;;;;;;21.27;4.97;;;;;;;;;;5013984;28;99985;-75
2022/05/21 05:57:23;;;;;;;15.90;3.58;;;;;;;;;;5040757;27;99256;-75
2022/05/21 05:59:50;;;;;;;18.60;4.05;;;;;;;;;;5007476;28;101134;-75
2022/05/21 06:05:04;;;;;;;23.48;4.13;;;;;;;;;;5009042;27;100545;-75
2022/05/21 06:07:31;;;;;;;15.43;4.05;;;;;;;;;;5013164;28;97873;-76
2022/05/21 06:10:01;;;;;;;17.20;3.63;;;;;;;;;;5028977;28;98558;-75
2022/05/21 06:12:33;;;;;;;17.92;4.80;;;;;;;;;;5028313;28;99313;-76
2022/05/21 06:15:00;;;;;;;15.25;3.75;;;;;;;;;;5027967;28;99272;-76
2022/05/21 06:17:26;;;;;;;19.40;3.58;;;;;;;;;;5020972;28;101117;-75
2022/05/21 06:19:53;;;;;;;14.90;3.08;;;;;;;;;;5008355;28;99624;-77
2022/05/21 06:22:19;;;;;;;13.43;3.72;;;;;;;;;;5009516;28;99476;-76
2022/05/21 06:24:45;;;;;;;14.23;4.03;;;;;;;;;;5019747;27;100210;-76
2022/05/21 06:27:12;;;;;;;19.42;5.38;;;;;;;;;;5010851;28;99601;-76
2022/05/21 06:29:38;;;;;;;17.50;4.00;;;;;;;;;;5015539;27;99044;-76
2022/05/21 06:32:06;;;;;;;14.25;4.07;;;;;;;;;;5033497;27;99331;-77
2022/05/21 06:34:40;;;;;;;16.13;3.90;;;;;;;;;;5028412;27;98690;-75
2022/05/21 06:37:08;;;;;;;23.23;4.63;;;;;;;;;;5044323;27;100307;-75
2022/05/21 06:39:35;;;;;;;22.75;4.60;;;;;;;;;;5032478;27;100169;-75
2022/05/21 06:42:02;;;;;;;16.27;3.90;;;;;;;;;;5027237;28;99439;-75
2022/05/21 06:44:28;;;;;;;17.30;3.78;;;;;;;;;;5016609;28;100022;-75
2022/05/21 06:46:55;;;;;;;16.52;4.88;;;;;;;;;;5024087;28;100292;-75
2022/05/21 06:49:21;;;;;;;12.35;3.70;;;;;;;;;;5018932;27;99069;-75
2022/05/21 06:51:52;;;;;;;16.38;4.85;;;;;;;;;;5048082;27;99642;-75
2022/05/21 06:54:18;;;;;;;14.85;4.32;;;;;;;;;;5026270;27;98624;-75
2022/05/21 06:56:44;;;;;;;13.85;3.42;;;;;;;;;;5011216;28;99668;-76
2022/05/21 06:59:11;;;;;;;18.77;4.18;;;;;;;;;;5027639;28;99598;-76
2022/05/21 07:01:37;;;;;;;15.02;4.47;;;;;;;;;;5020553;28;98607;-73
2022/05/21 07:04:04;;;;;;;16.48;4.25;;;;;;;;;;5021122;28;99861;-75
2022/05/21 07:09:15;;;;;;;18.55;4.43;;;;;;;;;;5035088;28;98579;-75
2022/05/21 07:11:41;;;;;;;11.00;3.47;;;;;;;;;;5030412;27;99366;-75
2022/05/21 07:14:08;;;;;;;15.85;4.22;;;;;;;;;;5031343;28;99113;-75
2022/05/21 07:16:36;;;;;;;18.58;4.50;;;;;;;;;;5013822;28;99984;-75
2022/05/21 07:19:02;;;;;;;14.73;3.95;;;;;;;;;;5011554;28;100606;-75
2022/05/21 07:21:29;;;;;;;13.63;3.60;;;;;;;;;;5017133;28;97990;-75
2022/05/21 07:23:57;;;;;;;11.80;3.72;;;;;;;;;;5031241;28;99527;-75
2022/05/21 07:26:23;;;;;;;13.07;3.63;;;;;;;;;;5031029;28;99254;-75
2022/05/21 07:28:51;;;;;;;16.45;3.70;;;;;;;;;;5031345;28;99325;-75
2022/05/21 07:31:17;;;;;;;15.00;4.00;;;;;;;;;;5020463;28;100080;-75
2022/05/21 07:33:46;;;;;;;15.00;4.10;;;;;;;;;;5021156;27;98627;-74
2022/05/21 07:36:12;;;;;;;15.10;4.07;;;;;;;;;;5052011;27;99989;-74
2022/05/21 07:38:38;;;;;;;11.23;3.45;;;;;;;;;;5036114;27;100988;-74
2022/05/21 07:41:05;;;;;;;11.90;3.78;;;;;;;;;;5018647;27;98707;-75
2022/05/21 07:43:33;;;;;;;12.32;3.35;;;;;;;;;;5011065;28;100172;-74
2022/05/21 07:46:00;;;;;;;12.63;3.38;;;;;;;;;;5010168;28;97802;-74
2022/05/21 07:48:27;;;;;;;16.52;3.80;;;;;;;;;;5013049;28;98585;-74
2022/05/21 07:50:55;;;;;;;17.08;4.18;;;;;;;;;;5031971;27;100052;-75
2022/05/21 07:53:29;;;;;;;13.80;3.63;;;;;;;;;;5030196;27;99731;-75
2022/05/21 07:55:56;;;;;;;12.25;3.38;;;;;;;;;;5030846;28;99920;-75
2022/05/21 07:58:23;;;;;;;13.80;3.25;;;;;;;;;;5030729;28;100198;-76
2022/05/21 08:00:50;;;;;;;21.27;4.80;;;;;;;;;;5029714;28;98559;-78
2022/05/21 08:03:18;;;;;;;12.32;3.50;;;;;;;;;;5031343;28;99978;-76
2022/05/21 08:05:45;;;;;;;11.60;3.30;;;;;;;;;;5030270;27;100275;-76
2022/05/21 08:08:12;;;;;;;18.08;3.80;;;;;;;;;;5029482;28;99110;-76
2022/05/21 08:10:41;;;;;;;12.80;3.47;;;;;;;;;;5031384;28;99882;-76
2022/05/21 08:13:07;;;;;;;11.20;3.85;;;;;;;;;;5029629;28;99649;-76
2022/05/21 08:15:34;;;;;;;13.40;3.90;;;;;;;;;;5018984;28;100080;-76
2022/05/21 08:18:00;;;;;;;13.40;3.90;;;;;;;;;;5029134;27;101037;-76
2022/05/21 08:20:27;;;;;;;12.23;4.13;;;;;;;;;;5029658;28;98612;-75
2022/05/21 08:28:23;;;;;;;13.00;4.57;;;;;;;;;;5010339;28;98507;-75
2022/05/21 08:30:50;;;;;;;17.33;3.97;;;;;;;;;;5009422;28;99366;-75
2022/05/21 08:33:18;;;;;;;15.85;4.10;;;;;;;;;;5009826;28;99356;-75
2022/05/21 08:35:44;;;;;;;19.40;4.47;;;;;;;;;;5013366;28;97785;-74
2022/05/21 08:38:11;;;;;;;14.85;4.22;;;;;;;;;;5009887;28;99540;-75
2022/05/21 08:40:54;;;;;;;14.43;3.72;;;;;;;;;;5010318;28;98527;-74
2022/05/21 08:43:24;;;;;;;16.23;3.97;;;;;;;;;;5012854;28;100513;-74
2022/05/21 08:46:00;;;;;;;17.08;3.67;;;;;;;;;;5010012;28;100314;-75
2022/05/21 08:48:28;;;;;;;14.88;3.38;;;;;;;;;;5009221;28;98547;-75
2022/05/21 08:50:55;;;;;;;11.88;3.55;;;;;;;;;;5010717;28;100171;-75
2022/05/21 08:53:23;;;;;;;13.93;3.58;;;;;;;;;;5009577;28;100264;-75
2022/05/21 08:55:51;;;;;;;12.93;3.88;;;;;;;;;;5009266;28;99068;-75
2022/05/21 08:58:38;;;;;;;14.60;3.67;;;;;;;;;;5013075;28;100169;-75
2022/05/21 09:01:04;;;;;;;10.02;3.40;;;;;;;;;;5010688;28;98750;-75
2022/05/21 09:03:30;;;;;;;11.68;3.45;;;;;;;;;;5008599;28;99794;-75
2022/05/21 09:06:09;;;;;;;14.60;3.63;;;;;;;;;;5009796;28;100229;-74
2022/05/21 09:08:47;;;;;;;9.82;2.85;;;;;;;;;;5008926;28;99235;-74
2022/05/21 09:11:34;;;;;;;11.18;3.00;;;;;;;;;;5009642;28;100621;-74
2022/05/21 09:14:05;;;;;;;8.25;2.75;;;;;;;;;;5009881;28;100515;-75
2022/05/21 09:16:54;;;;;;;18.73;3.63;;;;;;;;;;5008915;28;99071;-75
2022/05/21 09:19:23;;;;;;;10.38;2.90;;;;;;;;;;5009561;28;100102;-75
2022/05/21 09:21:55;;;;;;;10.10;3.00;;;;;;;;;;5012745;28;100205;-76
2022/05/21 09:24:38;;;;;;;17.55;3.63;;;;;;;;;;5008715;28;99119;-75
2022/05/21 09:27:09;;;;;;;14.63;3.60;;;;;;;;;;5010073;28;99569;-74
2022/05/21 09:29:37;;;;;;;9.33;2.80;;;;;;;;;;5009743;28;98776;-75
2022/05/21 09:32:32;;;;;;;12.05;3.60;;;;;;;;;;5008927;28;99981;-75
2022/05/21 09:35:05;;;;;;;10.32;2.92;;;;;;;;;;4999341;28;101215;-72
2022/05/21 09:37:32;;;;;;;11.30;3.30;;;;;;;;;;5008493;28;99004;-72
2022/05/21 09:39:59;;;;;;;9.23;2.97;;;;;;;;;;5009609;28;98912;-72
2022/05/21 09:45:26;;;;;;;13.27;3.50;;;;;;;;;;5011628;28;99115;-74
2022/05/21 09:47:53;;;;;;;11.48;2.63;;;;;;;;;;5009729;28;100705;-75
2022/05/21 09:50:22;;;;;;;11.07;2.60;;;;;;;;;;5019759;28;98492;-75
2022/05/21 09:52:50;;;;;;;14.05;2.90;;;;;;;;;;5029514;28;99792;-75
2022/05/21 09:55:19;;;;;;;12.10;3.33;;;;;;;;;;5029343;28;101105;-75
2022/05/21 09:57:45;;;;;;;12.43;3.17;;;;;;;;;;5009852;28;98674;-74
2022/05/21 10:00:29;;;;;;;11.80;3.22;;;;;;;;;;5008301;28;100041;-74
2022/05/21 10:02:56;;;;;;;7.60;2.33;;;;;;;;;;5008909;28;100211;-73
2022/05/21 10:05:25;;;;;;;11.05;2.75;;;;;;;;;;5022195;28;98504;-73
2022/05/21 10:10:59;;;;;;;12.90;3.30;;;;;;;;;;5028751;28;98560;-74
2022/05/21 10:13:37;;;;;;;11.95;3.13;;;;;;;;;;5028069;28;99358;-74
2022/05/21 10:16:16;;;;;;;15.35;3.63;;;;;;;;;;5026305;28;99755;-75
2022/05/21 10:18:50;;;;;;;14.45;3.58;;;;;;;;;;5029396;28;97799;-75
2022/05/21 10:21:35;;;;;;;14.82;4.30;;;;;;;;;;5028937;28;99472;-75
2022/05/21 10:24:05;;;;;;;19.58;3.58;;;;;;;;;;5028758;28;100284;-74
2022/05/21 10:26:55;;;;;;;11.80;3.05;;;;;;;;;;5028003;28;99358;-75
2022/05/21 10:29:22;;;;;;;17.60;4.38;;;;;;;;;;4994155;28;101067;-74
2022/05/21 10:31:51;;;;;;;15.60;3.13;;;;;;;;;;5013247;28;98719;-75
2022/05/21 10:34:28;;;;;;;15.35;3.70;;;;;;;;;;5011752;28;99876;-74
2022/05/21 10:37:13;;;;;;;10.52;2.58;;;;;;;;;;5011811;28;99644;-75
2022/05/21 10:39:45;;;;;;;10.20;2.67;;;;;;;;;;5012126;28;98653;-74
2022/05/21 10:42:17;;;;;;;10.88;3.55;;;;;;;;;;5011198;28;100340;-75
2022/05/21 10:44:55;;;;;;;10.73;2.75;;;;;;;;;;5012224;28;99415;-75
2022/05/21 10:47:41;;;;;;;12.88;3.10;;;;;;;;;;5011846;28;98578;-74
2022/05/21 10:50:16;;;;;;;8.93;2.67;;;;;;;;;;5012518;28;99886;-74
2022/05/21 10:52:45;;;;;;;9.48;2.53;;;;;;;;;;5014120;28;101035;-74
2022/05/21 10:55:21;;;;;;;8.82;2.83;;;;;;;;;;5011038;28;99793;-74
2022/05/21 10:58:06;;;;;;;13.73;2.70;;;;;;;;;;5022535;28;100238;-74
2022/05/21 11:00:35;;;;;;;8.13;2.60;;;;;;;;;;5031771;28;98590;-75
2022/05/21 11:03:20;;;;;;;7.85;2.58;;;;;;;;;;5031126;27;98995;-75
2022/05/21 11:06:05;;;;;;;12.38;3.47;;;;;;;;;;5031298;28;99530;-74
2022/05/21 11:08:38;;;;;;;11.35;2.75;;;;;;;;;;5031899;28;98636;-75
2022/05/21 11:11:08;;;;;;;7.57;2.25;;;;;;;;;;5031957;28;100021;-75
2022/05/21 11:13:40;;;;;;;13.82;3.83;;;;;;;;;;5031272;28;99655;-75
2022/05/21 11:16:07;;;;;;;12.98;2.90;;;;;;;;;;5028807;28;98939;-74
2022/05/21 11:18:38;;;;;;;10.13;2.60;;;;;;;;;;5010759;28;100962;-74
2022/05/21 11:21:08;;;;;;;7.95;2.45;;;;;;;;;;5011155;28;98823;-74
2022/05/21 11:23:39;;;;;;;8.43;2.25;;;;;;;;;;5010606;28;100303;-74
2022/05/21 11:26:10;;;;;;;7.57;2.30;;;;;;;;;;5010950;28;99652;-74
2022/05/21 11:28:52;;;;;;;14.52;2.80;;;;;;;;;;5011639;28;98647;-75
2022/05/21 11:39:44;;;;;;;13.65;3.42;;;;;;;;;;5014069;28;99222;-73
2022/05/21 11:42:14;;;;;;;13.40;3.47;;;;;;;;;;5010778;28;99373;-73
2022/05/21 11:44:56;;;;;;;17.65;4.13;;;;;;;;;;5009819;28;99890;-74
2022/05/21 11:47:22;;;;;;;13.20;3.93;;;;;;;;;;5010579;28;100450;-74
2022/05/21 11:49:48;;;;;;;15.68;3.83;;;;;;;;;;5010483;28;99073;-73
2022/05/21 11:52:27;;;;;;;10.50;2.65;;;;;;;;;;5010543;28;100368;-75
2022/05/21 11:54:53;;;;;;;11.32;2.83;;;;;;;;;;5010964;28;100105;-75
2022/05/21 11:57:31;;;;;;;20.48;3.50;;;;;;;;;;5017875;28;98842;-75
2022/05/21 11:59:59;;;;;;;10.20;3.83;;;;;;;;;;5030538;28;100043;-76
2022/05/21 12:02:27;;;;;;;9.98;2.83;;;;;;;;;;5034126;28;99233;-76
2022/05/21 12:04:58;;;;;;;11.57;2.55;;;;;;;;;;5031354;28;99417;-76
2022/05/21 12:07:43;;;;;;;9.18;2.60;;;;;;;;;;5030293;27;100376;-75
2022/05/21 12:10:19;;;;;;;7.55;2.47;;;;;;;;;;5030611;28;99302;-76
2022/05/21 12:13:12;;;;;;;8.52;2.22;;;;;;;;;;5030032;28;99567;-75
2022/05/21 12:15:50;;;;;;;6.55;2.30;;;;;;;;;;5023554;27;100575;-75
2022/05/21 12:18:35;;;;;;;12.18;2.80;;;;;;;;;;5031694;28;98584;-76
2022/05/21 12:21:02;;;;;;;7.05;3.08;;;;;;;;;;5030635;28;100107;-77
2022/05/21 12:23:31;;;;;;;6.55;1.88;;;;;;;;;;5033691;28;100174;-76
2022/05/21 12:25:58;;;;;;;6.47;1.90;;;;;;;;;;5031407;28;99807;-75
2022/05/21 12:28:36;;;;;;;5.30;1.80;;;;;;;;;;5030119;27;99482;-75
2022/05/21 12:31:07;;;;;;;7.55;2.60;;;;;;;;;;5017806;28;102123;-74
2022/05/21 12:33:43;;;;;;;8.77;2.45;;;;;;;;;;5012111;28;100092;-74
2022/05/21 12:36:50;;;;;;;7.55;2.53;;;;;;;;;;5009355;28;100385;-74
2022/05/21 12:39:19;;;;;;;9.70;2.30;;;;;;;;;;4981292;28;98720;-74
2022/05/21 12:41:48;;;;;;;8.40;2.35;;;;;;;;;;4986933;28;99171;-74
2022/05/21 12:44:33;;;;;;;6.25;1.92;;;;;;;;;;4998806;28;100447;-74
2022/05/21 12:46:59;;;;;;;10.90;2.42;;;;;;;;;;5023390;28;98618;-74
2022/05/21 12:49:25;;;;;;;9.70;2.28;;;;;;;;;;5010378;28;99606;-74
2022/05/21 12:51:52;;;;;;;9.32;2.28;;;;;;;;;;5024263;28;98535;-74
2022/05/21 12:54:20;;;;;;;7.28;2.45;;;;;;;;;;5029504;28;99968;-74
2022/05/21 12:56:46;;;;;;;8.82;2.22;;;;;;;;;;5031313;27;99272;-74
2022/05/21 12:59:33;;;;;;;7.50;2.53;;;;;;;;;;5050470;27;98706;-74
2022/05/21 13:02:13;;;;;;;6.80;2.40;;;;;;;;;;5033543;27;99955;-74
2022/05/21 13:04:42;;;;;;;10.88;2.20;;;;;;;;;;5029741;28;100282;-74
2022/05/21 13:07:14;;;;;;;6.75;2.00;;;;;;;;;;5030514;28;98618;-74
2022/05/21 13:09:41;;;;;;;;;;;;;;;;;;5032796;28;100128;-74
2022/05/21 13:12:13;;;;;;;9.00;2.35;;;;;;;;;;5016086;28;116678;-75
2022/05/21 13:14:40;;;;;;;8.32;2.20;;;;;;;;;;5009781;28;100054;-74
2022/05/21 13:17:11;;;;;;;10.50;3.17;;;;;;;;;;5008846;28;100968;-74
2022/05/21 13:19:38;;;;;;;4.68;2.40;;;;;;;;;;5009762;28;97876;-74
2022/05/21 13:22:28;;;;;;;10.90;2.85;;;;;;;;;;5009887;28;99257;-74
2022/05/21 13:24:58;;;;;;;9.07;2.67;;;;;;;;;;5009465;28;100095;-74
2022/05/21 13:27:25;;;;;;;10.80;3.28;;;;;;;;;;5026002;28;99322;-74
2022/05/21 13:29:52;;;;;;;11.07;3.40;;;;;;;;;;5028906;28;100680;-74
2022/05/21 13:32:26;;;;;;;13.32;3.00;;;;;;;;;;5032266;27;99685;-74
2022/05/21 13:34:57;;;;;;;11.38;2.60;;;;;;;;;;5030241;28;100024;-74
2022/05/21 13:37:27;;;;;;;13.25;2.83;;;;;;;;;;5028294;28;100469;-74
2022/05/21 13:39:59;;;;;;;5.60;2.17;;;;;;;;;;5025395;28;98558;-72
2022/05/21 13:42:26;;;;;;;11.43;3.10;;;;;;;;;;5024212;28;99252;-73
2022/05/21 13:44:54;;;;;;;9.27;4.05;;;;;;;;;;5015090;28;99208;-76
2022/05/21 13:47:24;;;;;;;8.07;2.67;;;;;;;;;;5020631;28;98665;-75
2022/05/21 13:49:54;;;;;;;11.38;3.58;;;;;;;;;;5016890;28;99130;-75
2022/05/21 13:52:23;;;;;;;10.23;3.08;;;;;;;;;;5016296;28;100043;-75
2022/05/21 13:54:49;;;;;;;9.40;2.50;;;;;;;;;;5018263;28;98600;-74
2022/05/21 13:57:23;;;;;;;7.75;2.80;;;;;;;;;;5020082;27;100054;-75
2022/05/21 14:00:14;;;;;;;10.48;2.40;;;;;;;;;;5010056;28;99335;-75
2022/05/21 14:02:42;;;;;;;14.45;3.50;;;;;;;;;;5027587;28;100038;-74
2022/05/21 14:05:27;;;;;;;10.35;3.03;;;;;;;;;;5024696;28;99806;-77
2022/05/21 14:07:55;;;;;;;9.43;3.13;;;;;;;;;;5013411;28;98580;-75
2022/05/21 14:10:34;;;;;;;8.35;3.08;;;;;;;;;;5019694;28;98920;-75
2022/05/21 14:13:05;;;;;;;10.43;2.67;;;;;;;;;;5023514;27;100299;-75
2022/05/21 14:15:45;;;;;;;8.32;2.63;;;;;;;;;;5016950;28;98553;-75
2022/05/21 14:18:23;;;;;;;13.75;3.00;;;;;;;;;;5017250;28;101268;-76
2022/05/21 14:20:57;;;;;;;10.07;3.08;;;;;;;;;;5021887;28;98566;-76
2022/05/21 14:23:30;;;;;;;10.85;2.60;;;;;;;;;;5015490;28;99464;-76
2022/05/21 14:26:31;;;;;;;11.93;3.72;;;;;;;;;;5039198;27;99087;-76
2022/05/21 14:28:58;;;;;;;10.68;3.40;;;;;;;;;;5049084;27;98635;-76
2022/05/21 14:31:40;;;;;;;5.05;2.35;;;;;;;;;;5016667;28;100347;-77
2022/05/21 14:34:12;;;;;;;8.88;2.63;;;;;;;;;;5013726;27;100789;-76
2022/05/21 14:36:39;;;;;;;;;;;;;;;;;;5024062;28;97833;-76
2022/05/21 14:39:06;;;;;;;9.88;2.55;;;;;;;;;;5026583;27;99739;-76
2022/05/21 14:41:36;;;;;;;10.95;3.17;;;;;;;;;;5017226;27;99014;-76
2022/05/21 14:44:04;;;;;;;6.72;2.60;;;;;;;;;;5027500;28;99354;-75
2022/05/21 14:49:15;;;;;;;9.80;3.08;;;;;;;;;;5049656;27;98549;-76
2022/05/21 14:54:29;;;;;;;11.55;2.88;;;;;;;;;;5024725;27;99169;-76
2022/05/21 14:56:56;;;;;;;9.18;2.38;;;;;;;;;;5008406;28;99931;-76
2022/05/21 14:59:22;;;;;;;9.63;2.95;;;;;;;;;;5047345;27;100336;-76
2022/05/21 15:01:49;;;;;;;11.70;3.15;;;;;;;;;;5025745;27;101189;-76
2022/05/21 15:04:15;;;;;;;9.75;3.05;;;;;;;;;;5021154;28;99283;-76
2022/05/21 15:06:41;;;;;;;9.82;3.08;;;;;;;;;;5025138;28;100311;-75
2022/05/21 15:09:12;;;;;;;11.05;3.53;;;;;;;;;;5010150;28;99779;-75
2022/05/21 15:11:38;;;;;;;12.07;3.03;;;;;;;;;;5013656;28;99965;-74
2022/05/21 15:14:07;;;;;;;13.13;3.70;;;;;;;;;;5007682;28;99489;-75
2022/05/21 15:16:33;;;;;;;11.07;2.78;;;;;;;;;;5008749;28;98496;-76
2022/05/21 15:19:03;;;;;;;13.90;3.45;;;;;;;;;;5011427;28;99262;-76
2022/05/21 15:21:31;;;;;;;12.13;3.42;;;;;;;;;;5010375;28;99305;-75